Terminal Aerodrome Forecast
Issued by NWS Omaha/Valley, NE

Home | Current Version | Previous Version | Graphics & Text | Print | Product List | Glossary On
Versions: 1 2 3 4 5 6 7 8 9 10 11 12 13 14 15 16 17 18 19 20 21 22 23 24 25 26 27 28 29 30 31 32 33 34 35 36
000
FTUS43 KOAX 250944 AAC
TAFOFK
TAF AMD
KOFK 250944Z 2510/2606 00000KT 1/2SM FG SCT002 OVC017
     FM251100 VRB03KT 4SM BR FEW002 OVC030
      TEMPO 2511/2513 1/2SM -DZ FG BKN002 OVC015
     FM251300 19004KT 4SM BR OVC015
     FM251600 18007KT P6SM OVC025
     FM251900 19010KT P6SM OVC035 PROB30 2521/2524 5SM -SHRA=

USA.gov is the U.S. government's official web portal to all federal, state and local government web resources and services.